createdAt,value
2023-01-06T00:00:38.100Z,6.57
2023-01-06T00:03:05.520Z,5.97
2023-01-06T00:05:32.448Z,5.85
2023-01-06T00:07:59.748Z,5.85
2023-01-06T00:10:27.033Z,5.80
2023-01-06T00:12:54.123Z,6.13
2023-01-06T00:15:21.083Z,5.97
2023-01-06T00:17:48.112Z,6.00
2023-01-06T00:20:15.474Z,5.85
2023-01-06T00:22:42.907Z,5.55
2023-01-06T00:25:10.682Z,5.45
2023-01-06T00:27:38.727Z,5.30
2023-01-06T00:30:06.462Z,5.03
2023-01-06T00:32:33.414Z,5.05
2023-01-06T00:35:00.339Z,5.47
2023-01-06T00:37:27.308Z,4.70
2023-01-06T00:39:54.276Z,5.10
2023-01-06T00:42:22.542Z,4.93
2023-01-06T00:44:49.932Z,4.97
2023-01-06T00:47:17.306Z,4.68
2023-01-06T00:49:44.221Z,4.57
2023-01-06T00:52:11.587Z,5.05
2023-01-06T00:54:38.604Z,4.80
2023-01-06T00:57:07.571Z,4.60
2023-01-06T00:59:34.965Z,4.78
2023-01-06T01:02:02.176Z,4.75
2023-01-06T01:04:29.421Z,4.78
2023-01-06T01:06:56.654Z,4.22
2023-01-06T01:09:26.376Z,4.32
2023-01-06T01:12:12.641Z,4.40
2023-01-06T01:14:52.122Z,4.68
2023-01-06T01:17:25.288Z,4.68
2023-01-06T01:19:55.462Z,4.20
2023-01-06T01:22:23.751Z,4.40
2023-01-06T01:24:51.364Z,4.10
2023-01-06T01:27:19.610Z,3.97
2023-01-06T01:29:46.596Z,4.22
2023-01-06T01:32:13.630Z,4.18
2023-01-06T01:34:40.616Z,3.42
2023-01-06T01:37:07.593Z,4.05
2023-01-06T01:39:34.560Z,3.63
2023-01-06T01:42:01.532Z,3.67
2023-01-06T01:44:54.183Z,3.85
2023-01-06T01:47:42.604Z,3.92
2023-01-06T01:50:29.642Z,3.55
2023-01-06T01:53:05.168Z,3.90
2023-01-06T01:55:32.842Z,3.65
2023-01-06T01:58:05.223Z,3.67
2023-01-06T02:00:32.145Z,3.50
2023-01-06T02:02:59.368Z,3.03
2023-01-06T02:05:27.605Z,3.00
2023-01-06T02:07:57.525Z,3.65
2023-01-06T02:10:25.103Z,3.17
2023-01-06T02:12:55.273Z,3.08
2023-01-06T02:15:28.708Z,3.00
2023-01-06T02:18:19.938Z,3.00
2023-01-06T02:21:01.951Z,2.88
2023-01-06T02:23:34.553Z,2.60
2023-01-06T02:26:26.496Z,2.97
2023-01-06T02:29:15.297Z,2.60
2023-01-06T02:32:05.285Z,2.53
2023-01-06T02:34:57.990Z,2.45
2023-01-06T02:37:36.662Z,2.50
2023-01-06T02:40:09.477Z,2.20
2023-01-06T02:42:54.509Z,2.33
2023-01-06T02:46:00.473Z,2.38
2023-01-06T02:48:39.961Z,2.08
2023-01-06T02:51:24.987Z,2.15
2023-01-06T02:54:27.097Z,2.20
2023-01-06T02:57:24.711Z,2.13
2023-01-06T03:00:00.404Z,2.00
2023-01-06T03:02:28.332Z,2.35
2023-01-06T03:04:56.421Z,2.10
2023-01-06T03:07:24.042Z,2.45
2023-01-06T03:09:53.034Z,2.20
2023-01-06T03:12:42.047Z,2.20
2023-01-06T03:15:09.536Z,2.03
2023-01-06T03:17:36.545Z,2.08
2023-01-06T03:20:03.824Z,1.90
2023-01-06T03:22:30.774Z,1.85
2023-01-06T03:24:57.789Z,1.80
2023-01-06T03:27:26.600Z,1.77
2023-01-06T03:29:54.145Z,1.80
2023-01-06T03:32:41.375Z,1.90
2023-01-06T03:35:14.098Z,1.83
2023-01-06T03:38:24.212Z,1.50
2023-01-06T03:41:02.035Z,1.65
2023-01-06T03:43:35.922Z,1.73
2023-01-06T03:49:31.713Z,1.73
2023-01-06T03:52:21.126Z,1.67
2023-01-06T03:55:05.120Z,1.30
2023-01-06T03:57:35.017Z,1.30
2023-01-06T04:00:15.500Z,1.45
2023-01-06T04:02:42.588Z,1.50
2023-01-06T04:05:13.109Z,1.73
2023-01-06T04:07:40.787Z,1.30
2023-01-06T04:10:08.709Z,1.10
2023-01-06T04:12:41.467Z,1.40
2023-01-06T04:15:19.781Z,1.27
2023-01-06T04:17:47.550Z,1.15
2023-01-06T04:20:19.972Z,1.40
2023-01-06T04:22:47.339Z,1.30
2023-01-06T04:25:14.568Z,1.20
2023-01-06T04:27:42.791Z,1.30
2023-01-06T04:30:09.960Z,1.30
2023-01-06T04:32:36.799Z,1.23
2023-01-06T04:35:04.045Z,1.02
2023-01-06T04:37:30.931Z,1.25
2023-01-06T04:39:57.803Z,1.20
2023-01-06T04:42:24.673Z,1.10
2023-01-06T04:44:51.603Z,1.00
2023-01-06T04:47:18.477Z,1.20
2023-01-06T04:49:45.365Z,0.90
2023-01-06T04:52:12.203Z,1.00
2023-01-06T04:54:39.102Z,1.10
2023-01-06T04:57:05.996Z,1.00
2023-01-06T04:59:32.863Z,1.00
2023-01-06T05:01:59.795Z,1.35
2023-01-06T05:04:28.473Z,1.00
2023-01-06T05:06:56.942Z,1.08
2023-01-06T05:09:23.897Z,1.10
2023-01-06T05:11:50.859Z,0.95
2023-01-06T05:14:20.033Z,1.08
2023-01-06T05:16:48.260Z,0.90
2023-01-06T05:19:15.224Z,0.90
2023-01-06T05:21:42.197Z,0.90
2023-01-06T05:24:10.201Z,0.85
2023-01-06T05:26:37.168Z,1.08
2023-01-06T05:29:04.115Z,1.00
2023-01-06T05:31:31.249Z,1.10
2023-01-06T05:33:58.215Z,1.17
2023-01-06T05:36:25.209Z,1.20
2023-01-06T05:38:55.206Z,0.90
2023-01-06T05:41:22.206Z,0.90
2023-01-06T05:43:49.125Z,1.00
2023-01-06T05:46:16.069Z,0.90
2023-01-06T05:48:43.030Z,0.70
2023-01-06T05:51:13.109Z,0.90
2023-01-06T05:53:42.271Z,0.70
2023-01-06T05:56:11.529Z,0.77
2023-01-06T05:58:41.750Z,0.77
2023-01-06T06:01:25.061Z,0.90
2023-01-06T06:03:53.474Z,0.70
2023-01-06T06:06:21.871Z,0.80
2023-01-06T06:08:48.889Z,0.60
2023-01-06T06:11:17.161Z,0.82
2023-01-06T06:13:48.533Z,0.95
2023-01-06T06:16:17.295Z,0.70
2023-01-06T06:18:44.816Z,0.70
2023-01-06T06:21:13.548Z,0.70
2023-01-06T06:23:40.640Z,0.70
2023-01-06T06:26:08.302Z,0.70
2023-01-06T06:28:36.205Z,0.93
2023-01-06T06:31:10.875Z,0.90
2023-01-06T06:33:38.243Z,4.47
2023-01-06T06:36:05.979Z,6.55
2023-01-06T06:38:32.867Z,6.00
2023-01-06T06:40:59.762Z,5.90
2023-01-06T06:43:26.682Z,5.57
2023-01-06T06:45:53.632Z,5.25
2023-01-06T06:48:20.524Z,5.53
2023-01-06T06:50:47.468Z,4.90
2023-01-06T06:53:14.271Z,4.53
2023-01-06T06:55:41.174Z,4.55
2023-01-06T06:58:08.300Z,4.90
2023-01-06T07:00:35.267Z,5.05
2023-01-06T07:03:02.233Z,4.32
2023-01-06T07:05:29.573Z,4.38
2023-01-06T07:07:56.636Z,4.60
2023-01-06T07:10:23.612Z,4.75
2023-01-06T07:12:50.601Z,4.47
2023-01-06T07:15:17.565Z,4.50
2023-01-06T07:17:44.566Z,4.88
2023-01-06T07:20:11.638Z,4.13
2023-01-06T07:22:39.591Z,4.25
2023-01-06T07:25:07.848Z,4.68
2023-01-06T07:27:35.618Z,4.20
2023-01-06T07:30:03.951Z,3.85
2023-01-06T07:32:31.046Z,4.35
2023-01-06T07:34:58.078Z,4.28
2023-01-06T07:37:25.085Z,3.95
2023-01-06T07:39:52.104Z,4.32
2023-01-06T07:42:19.087Z,3.72
2023-01-06T07:44:46.040Z,3.60
2023-01-06T07:47:13.612Z,3.65
2023-01-06T07:49:40.750Z,3.30
2023-01-06T07:52:07.693Z,3.10
2023-01-06T07:54:34.819Z,5.13
2023-01-06T07:57:01.699Z,10.02
2023-01-06T07:59:28.620Z,8.60
2023-01-06T08:01:55.583Z,6.63
2023-01-06T08:04:22.527Z,5.50
2023-01-06T08:06:49.399Z,5.18
2023-01-06T08:09:16.262Z,4.85
2023-01-06T08:11:43.151Z,4.00
2023-01-06T08:14:11.558Z,4.32
2023-01-06T08:16:39.575Z,3.90
2023-01-06T08:19:07.099Z,3.40
2023-01-06T08:21:34.074Z,4.68
2023-01-06T08:24:00.953Z,7.00
2023-01-06T08:26:27.931Z,6.22
2023-01-06T08:28:55.261Z,5.43
2023-01-06T08:31:23.019Z,8.07
2023-01-06T08:33:51.827Z,11.35
2023-01-06T08:36:22.784Z,8.83
2023-01-06T08:38:50.360Z,6.13
2023-01-06T08:41:17.591Z,6.15
2023-01-06T08:43:46.298Z,5.57
2023-01-06T08:46:17.295Z,4.53
2023-01-06T08:48:44.732Z,4.15
2023-01-06T08:51:16.025Z,4.18
2023-01-06T08:53:44.103Z,4.35
2023-01-06T08:56:20.036Z,4.00
2023-01-06T08:58:54.929Z,6.35
2023-01-06T09:01:25.095Z,9.35
2023-01-06T09:03:52.314Z,6.70
2023-01-06T09:06:20.682Z,6.47
2023-01-06T09:08:48.780Z,6.05
2023-01-06T09:11:17.309Z,5.25
2023-01-06T09:13:44.713Z,4.57
2023-01-06T09:16:12.295Z,4.70
2023-01-06T09:18:39.727Z,4.32
2023-01-06T09:21:06.790Z,4.05
2023-01-06T09:23:33.895Z,4.30
2023-01-06T09:26:00.859Z,3.65
2023-01-06T09:28:27.777Z,3.80
2023-01-06T09:30:54.774Z,4.05
2023-01-06T09:33:21.830Z,3.40
2023-01-06T09:35:48.760Z,3.47
2023-01-06T09:38:16.044Z,2.88
2023-01-06T09:40:54.991Z,2.97
2023-01-06T09:43:46.611Z,3.25
2023-01-06T09:46:26.566Z,2.80
2023-01-06T09:49:03.721Z,3.05
2023-01-06T09:51:32.102Z,2.60
2023-01-06T09:54:21.372Z,2.78
2023-01-06T09:59:33.032Z,2.50
2023-01-06T10:02:01.305Z,2.63
2023-01-06T10:04:29.839Z,2.80
2023-01-06T10:07:13.488Z,2.58
2023-01-06T10:10:17.425Z,2.20
2023-01-06T10:12:47.270Z,2.10
2023-01-06T10:15:24.333Z,2.25
2023-01-06T10:17:57.178Z,2.20
2023-01-06T10:20:35.796Z,1.70
2023-01-06T10:23:26.756Z,1.92
2023-01-06T10:25:55.673Z,12.82
2023-01-06T10:28:55.168Z,11.25
2023-01-06T10:31:28.222Z,7.78
2023-01-06T10:33:56.763Z,5.82
2023-01-06T10:39:07.212Z,4.22
2023-01-06T10:42:31.975Z,3.55
2023-01-06T10:44:58.884Z,3.25
2023-01-06T10:47:29.031Z,3.08
2023-01-06T10:49:56.200Z,3.53
2023-01-06T10:52:23.256Z,3.10
2023-01-06T10:54:56.732Z,2.83
2023-01-06T10:57:31.276Z,2.80
2023-01-06T11:00:27.728Z,2.55
2023-01-06T11:03:25.603Z,2.55
2023-01-06T11:06:00.690Z,2.17
2023-01-06T11:08:27.911Z,7.57
2023-01-06T11:10:57.125Z,6.20
2023-01-06T11:13:34.586Z,5.57
2023-01-06T11:16:07.429Z,5.32
2023-01-06T11:18:38.144Z,3.72
2023-01-06T11:21:18.265Z,3.50
2023-01-06T11:23:47.666Z,3.10
2023-01-06T11:26:19.004Z,3.10
2023-01-06T11:28:48.458Z,2.70
2023-01-06T11:31:15.548Z,2.80
2023-01-06T11:34:03.140Z,2.80
2023-01-06T11:36:32.642Z,2.50
2023-01-06T11:39:02.159Z,2.42
2023-01-06T11:41:40.503Z,2.25
2023-01-06T11:44:30.433Z,2.28
2023-01-06T11:47:04.970Z,2.30
2023-01-06T11:49:36.132Z,2.00
2023-01-06T11:52:17.957Z,2.58
2023-01-06T11:54:45.659Z,2.10
2023-01-06T11:57:34.113Z,2.30
2023-01-06T12:00:32.210Z,2.10
2023-01-06T12:03:11.197Z,2.10
2023-01-06T12:05:39.485Z,1.98
2023-01-06T12:08:54.453Z,1.90
2023-01-06T12:11:43.250Z,1.80
2023-01-06T12:14:27.411Z,1.80
2023-01-06T12:17:08.464Z,1.75
2023-01-06T12:19:42.839Z,1.80
2023-01-06T12:22:32.647Z,1.70
2023-01-06T12:25:00.181Z,1.45
2023-01-06T12:27:56.632Z,1.50
2023-01-06T12:30:47.767Z,1.30
2023-01-06T12:33:23.753Z,1.35
2023-01-06T12:35:54.748Z,1.50
2023-01-06T12:38:43.145Z,1.42
2023-01-06T12:41:15.990Z,1.42
2023-01-06T12:43:47.425Z,2.63
2023-01-06T12:46:19.616Z,4.18
2023-01-06T12:49:05.248Z,5.32
2023-01-06T12:51:42.255Z,3.80
2023-01-06T12:54:24.770Z,3.50
2023-01-06T12:56:54.407Z,2.78
2023-01-06T12:59:36.340Z,2.70
2023-01-06T13:02:22.089Z,2.42
2023-01-06T13:05:19.705Z,2.17
2023-01-06T13:07:53.970Z,2.17
2023-01-06T13:10:31.120Z,1.98
2023-01-06T13:13:31.423Z,2.00
2023-01-06T13:16:01.488Z,6.90
2023-01-06T13:18:35.158Z,9.40
2023-01-06T13:21:07.999Z,8.52
2023-01-06T13:23:56.365Z,6.80
2023-01-06T13:26:54.524Z,5.85
2023-01-06T13:32:21.132Z,4.07
2023-01-06T13:35:23.759Z,3.53
2023-01-06T13:38:11.939Z,3.08
2023-01-06T13:40:39.905Z,3.10
2023-01-06T13:43:14.826Z,2.97
2023-01-06T13:45:44.037Z,2.35
2023-01-06T13:48:18.203Z,1.98
2023-01-06T13:50:45.312Z,2.22
2023-01-06T13:53:21.598Z,2.20
2023-01-06T13:55:49.180Z,2.42
2023-01-06T13:58:30.303Z,1.83
2023-01-06T14:01:13.607Z,3.33
2023-01-06T14:03:41.976Z,6.60
2023-01-06T14:06:22.458Z,6.10
2023-01-06T14:08:54.687Z,5.25
2023-01-06T14:11:34.296Z,4.57
2023-01-06T14:14:06.528Z,3.55
2023-01-06T14:16:50.741Z,3.20
2023-01-06T14:19:18.483Z,3.15
2023-01-06T14:21:49.670Z,2.50
2023-01-06T14:24:19.672Z,3.13
2023-01-06T14:27:02.909Z,2.92
2023-01-06T14:29:48.883Z,2.67
2023-01-06T14:32:16.999Z,2.38
2023-01-06T14:38:29.954Z,1.98
2023-01-06T14:41:02.202Z,1.92
2023-01-06T14:43:52.690Z,1.80
2023-01-06T14:46:38.433Z,2.13
2023-01-06T14:49:07.703Z,2.10
2023-01-06T14:51:34.998Z,2.13
2023-01-06T14:54:06.055Z,1.95
2023-01-06T14:56:33.483Z,2.20
2023-01-06T14:59:10.919Z,2.00
2023-01-06T15:01:39.582Z,1.80
2023-01-06T15:04:07.348Z,1.77
2023-01-06T15:06:34.348Z,1.50
2023-01-06T15:09:21.033Z,1.90
2023-01-06T15:11:48.467Z,1.85
2023-01-06T15:14:34.938Z,1.90
2023-01-06T15:17:06.609Z,1.60
2023-01-06T15:19:34.970Z,1.85
2023-01-06T15:22:07.917Z,1.70
2023-01-06T15:24:39.566Z,1.50
2023-01-06T15:27:11.007Z,1.63
2023-01-06T15:29:38.174Z,1.40
2023-01-06T15:32:07.288Z,1.45
2023-01-06T15:34:36.694Z,1.50
2023-01-06T15:39:35.939Z,1.50
2023-01-06T15:42:05.762Z,1.52
2023-01-06T15:44:35.408Z,1.40
2023-01-06T15:49:49.171Z,1.35
2023-01-06T15:52:25.153Z,1.55
2023-01-06T15:54:54.241Z,1.15
2023-01-06T15:57:21.261Z,1.30
2023-01-06T15:59:54.101Z,1.10
2023-01-06T16:02:25.083Z,1.20
2023-01-06T16:04:52.181Z,1.45
2023-01-06T16:07:32.111Z,1.40
2023-01-06T16:09:59.039Z,1.60
2023-01-06T16:12:26.259Z,1.10
2023-01-06T16:14:53.209Z,1.20
2023-01-06T16:17:33.601Z,1.20
2023-01-06T16:20:06.689Z,1.30
2023-01-06T16:22:47.155Z,1.20
2023-01-06T16:25:32.418Z,1.23
2023-01-06T16:28:03.742Z,1.00
2023-01-06T16:30:33.714Z,1.20
2023-01-06T16:33:01.227Z,1.13
2023-01-06T16:35:33.553Z,1.00
2023-01-06T16:38:00.524Z,0.88
2023-01-06T16:40:28.618Z,1.15
2023-01-06T16:43:00.724Z,1.08
2023-01-06T16:45:37.265Z,1.10
2023-01-06T16:48:04.580Z,0.90
2023-01-06T16:50:38.723Z,1.02
2023-01-06T16:53:20.967Z,1.25
2023-01-06T16:55:52.407Z,1.10
2023-01-06T16:58:24.383Z,0.93
2023-01-06T17:00:53.464Z,1.10
2023-01-06T17:03:25.994Z,0.88
2023-01-06T17:05:53.343Z,1.00
2023-01-06T17:08:31.440Z,1.10
2023-01-06T17:11:01.005Z,0.98
2023-01-06T17:13:35.285Z,1.00
2023-01-06T17:16:12.025Z,0.70
2023-01-06T17:18:50.139Z,0.90
2023-01-06T17:21:24.611Z,1.10
2023-01-06T17:24:15.520Z,1.00
2023-01-06T17:26:47.282Z,0.82
2023-01-06T17:29:15.848Z,1.00
2023-01-06T17:31:45.105Z,5.03
2023-01-06T17:34:17.771Z,5.80
2023-01-06T17:36:50.950Z,6.20
2023-01-06T17:39:21.821Z,4.30
2023-01-06T17:41:48.944Z,3.72
2023-01-06T17:44:20.008Z,3.20
2023-01-06T17:46:47.257Z,2.97
2023-01-06T17:49:20.174Z,2.70
2023-01-06T17:51:47.195Z,2.35
2023-01-06T17:54:37.056Z,2.05
2023-01-06T17:57:16.208Z,2.40
2023-01-06T17:59:43.640Z,2.30
2023-01-06T18:02:33.929Z,2.08
2023-01-06T18:05:24.155Z,1.77
2023-01-06T18:08:14.936Z,1.73
2023-01-06T18:10:46.187Z,1.80
2023-01-06T18:13:17.517Z,1.83
2023-01-06T18:15:46.857Z,1.63
2023-01-06T18:18:18.613Z,2.13
2023-01-06T18:20:52.981Z,1.70
2023-01-06T18:23:22.907Z,1.52
2023-01-06T18:25:56.148Z,1.73
2023-01-06T18:28:23.508Z,1.50
2023-01-06T18:31:13.977Z,1.83
2023-01-06T18:33:40.931Z,1.67
2023-01-06T18:36:09.337Z,1.40
2023-01-06T18:38:36.338Z,1.50
2023-01-06T18:41:03.527Z,1.48
2023-01-06T18:43:30.554Z,1.50
2023-01-06T18:46:13.704Z,1.40
2023-01-06T18:48:40.706Z,1.50
2023-01-06T18:51:18.947Z,1.50
2023-01-06T18:53:47.425Z,1.30
2023-01-06T18:56:21.090Z,1.30
2023-01-06T18:58:57.152Z,1.60
2023-01-06T19:01:47.350Z,1.75
2023-01-06T19:04:30.264Z,1.42
2023-01-06T19:06:58.553Z,1.45
2023-01-06T19:09:38.245Z,1.15
2023-01-06T19:14:40.856Z,1.23
2023-01-06T19:17:23.734Z,1.20
2023-01-06T19:19:53.941Z,1.38
2023-01-06T19:22:38.850Z,0.98
2023-01-06T19:25:27.418Z,1.20
2023-01-06T19:27:57.825Z,1.30
2023-01-06T19:30:42.742Z,1.13
2023-01-06T19:33:42.493Z,1.23
2023-01-06T19:36:21.459Z,1.20
2023-01-06T19:38:48.636Z,1.20
2023-01-06T19:41:18.978Z,1.10
2023-01-06T19:43:47.225Z,1.23
2023-01-06T19:46:23.000Z,1.10
2023-01-06T19:48:50.541Z,0.90
2023-01-06T19:51:34.160Z,1.20
2023-01-06T19:54:19.138Z,1.00
2023-01-06T19:56:47.197Z,1.02
2023-01-06T19:59:29.372Z,1.33
2023-01-06T20:02:07.360Z,1.20
2023-01-06T20:04:34.618Z,1.27
2023-01-06T20:07:02.245Z,0.80
2023-01-06T20:09:30.520Z,1.20
2023-01-06T20:11:58.235Z,1.02
2023-01-06T20:14:25.144Z,1.00
2023-01-06T20:16:52.108Z,0.93
2023-01-06T20:19:21.523Z,0.90
2023-01-06T20:21:48.567Z,0.90
2023-01-06T20:24:15.581Z,1.10
2023-01-06T20:26:42.556Z,1.05
2023-01-06T20:29:09.727Z,1.02
2023-01-06T20:31:36.704Z,1.00
2023-01-06T20:34:03.852Z,0.77
2023-01-06T20:36:30.835Z,0.80
2023-01-06T20:38:57.788Z,0.95
2023-01-06T20:41:24.648Z,0.90
2023-01-06T20:43:51.573Z,0.80
2023-01-06T20:46:18.556Z,1.00
2023-01-06T20:48:45.539Z,0.90
2023-01-06T20:51:12.409Z,1.00
2023-01-06T20:53:39.315Z,0.90
2023-01-06T20:56:06.578Z,0.77
2023-01-06T20:58:33.574Z,0.90
2023-01-06T21:01:00.609Z,0.90
2023-01-06T21:03:27.623Z,0.88
2023-01-06T21:05:54.610Z,0.77
2023-01-06T21:08:21.553Z,0.70
2023-01-06T21:10:48.495Z,0.98
2023-01-06T21:13:15.792Z,0.65
2023-01-06T21:15:42.799Z,0.90
2023-01-06T21:18:09.842Z,0.73
2023-01-06T21:20:36.837Z,0.90
2023-01-06T21:23:03.895Z,0.90
2023-01-06T21:25:31.143Z,0.77
2023-01-06T21:27:58.869Z,0.80
2023-01-06T21:30:28.310Z,0.80
2023-01-06T21:32:55.371Z,0.82
2023-01-06T21:35:22.389Z,0.77
2023-01-06T21:37:49.482Z,0.70
2023-01-06T21:40:16.576Z,0.93
2023-01-06T21:43:18.613Z,0.70
2023-01-06T21:45:45.697Z,0.90
2023-01-06T21:48:14.813Z,0.80
2023-01-06T21:50:43.985Z,0.60
2023-01-06T21:53:11.585Z,0.77
2023-01-06T21:55:40.475Z,0.70
2023-01-06T21:58:07.532Z,0.63
2023-01-06T22:00:34.491Z,0.52
2023-01-06T22:03:01.596Z,0.70
2023-01-06T22:05:28.909Z,0.80
2023-01-06T22:07:55.930Z,0.90
2023-01-06T22:10:25.051Z,0.80
2023-01-06T22:12:53.923Z,0.60
2023-01-06T22:15:21.722Z,0.52
2023-01-06T22:17:49.060Z,0.50
2023-01-06T22:20:17.682Z,0.70
2023-01-06T22:22:44.891Z,0.93
2023-01-06T22:25:12.066Z,1.92
2023-01-06T22:27:39.066Z,6.90
2023-01-06T22:30:06.541Z,5.60
2023-01-06T22:32:42.674Z,5.53
2023-01-06T22:35:11.268Z,4.40
2023-01-06T22:37:38.199Z,4.30
2023-01-06T22:40:05.942Z,4.10
2023-01-06T22:42:32.963Z,3.13
2023-01-06T22:44:59.957Z,3.05
2023-01-06T22:47:27.034Z,2.70
2023-01-06T22:49:53.943Z,2.60
2023-01-06T22:52:20.964Z,2.50
2023-01-06T22:54:47.867Z,2.20
2023-01-06T22:57:14.844Z,2.10
2023-01-06T22:59:41.738Z,1.88
2023-01-06T23:02:08.861Z,1.60
2023-01-06T23:04:35.835Z,1.70
2023-01-06T23:07:02.738Z,1.50
2023-01-06T23:09:29.602Z,1.63
2023-01-06T23:11:56.456Z,1.13
2023-01-06T23:14:23.320Z,1.58
2023-01-06T23:16:50.209Z,1.30
2023-01-06T23:19:17.225Z,1.20
2023-01-06T23:21:44.704Z,1.48
2023-01-06T23:24:12.232Z,1.48
2023-01-06T23:26:41.850Z,1.20
2023-01-06T23:29:09.052Z,1.17
2023-01-06T23:31:41.288Z,1.25
2023-01-06T23:34:10.842Z,6.57
2023-01-06T23:36:38.408Z,11.93
2023-01-06T23:39:08.153Z,10.65
2023-01-06T23:44:02.790Z,7.40
2023-01-06T23:46:35.808Z,5.47
2023-01-06T23:49:03.025Z,5.20
2023-01-06T23:51:33.304Z,5.00
2023-01-06T23:54:01.602Z,4.60
2023-01-06T23:56:30.796Z,3.90
2023-01-06T23:58:59.628Z,3.70
